Cooperative Mariner — WDB9872 — position and weather

sailwx.info

Track history (hours):
 
Tides and Currents Weather Stations Pressure Air Temp Water Temp Dewpoint Dewpoint Depression Visibility Wind Speed Wind Dir Waves Ship Positions

Cooperative Mariner

Owner: American River Transportation Company, St Louis, MO. More information available from US FCC via Universal Licensing System and Coast Guard Vessel Documentation Center.

Last reported at 2018-May-07 15:27 UTC. Time now 2018-May-23 01:33 UTC.
Position N 39°10' W 090°43'.
Warning: this ship's position is 15 days out of date.

Length 51 m; draft 2.7 m.

Type: Towing. MMSI: 366984270.

Date/timePositionNaut miles runAvg speedWind from/ knotsBaromVisibWave heightAir tempDewpointWater temp
2018-May-07 15:27N 39°10' W 090°43'2 3.5
2018-May-07 15:00N 39°08' W 090°42'2 3.9
2018-May-07 14:30N 39°07' W 090°41'2 3.6
2018-May-07 13:57N 39°05' W 090°41'2 3.6
2018-May-07 13:30N 39°03' W 090°43'2 3.4
2018-May-07 13:00N 39°02' W 090°42'2 3.3
2018-May-07 12:30N 39°00' W 090°41'0 0.2
2018-May-07 12:00N 39°00' W 090°41'0 0.1
2018-May-07 11:29N 39°00' W 090°41'1 1.2
2018-May-07 11:00N 38°60' W 090°41'2 3.5
2018-May-07 10:30N 38°58' W 090°40'2 3.8
2018-May-07 10:00N 38°56' W 090°40'2 3.7
2018-May-07 09:30N 38°55' W 090°39'2 3.7
2018-May-07 09:00N 38°53' W 090°37'2 3.5
2018-May-07 08:30N 38°52' W 090°35'2 3.8
2018-May-07 08:00N 38°52' W 090°33'1 2.6
2018-May-07 07:30N 38°53' W 090°32'0 0.1
2018-May-07 07:00N 38°53' W 090°32'2 3.6
2018-May-07 06:30N 38°55' W 090°31'2 4.1
2018-May-07 06:00N 38°56' W 090°29'1 2.8
2018-May-07 05:30N 38°57' W 090°28'0 0.0
2018-May-07 05:00N 38°57' W 090°28'0 0.0
2018-May-07 04:30N 38°57' W 090°28'0 0.0
2018-May-07 04:00N 38°57' W 090°28'0 0.7
2018-May-07 03:30N 38°57' W 090°27'2 3.7
2018-May-07 03:00N 38°58' W 090°25'2 3.9
2018-May-07 02:30N 38°57' W 090°23'2 4.1
2018-May-07 02:00N 38°56' W 090°20'2 4.0
2018-May-07 01:30N 38°55' W 090°18'2 3.9
2018-May-07 01:00N 38°55' W 090°16'2 3.6
2018-May-07 00:29N 38°55' W 090°13'2 3.7
2018-May-07 00:00N 38°53' W 090°12'2 3.9
2018-May-06 23:30N 38°52' W 090°10'1 1.3
2018-May-06 23:00N 38°52' W 090°09'2 2.8
2018-May-06 22:17N 38°51' W 090°07'2 3.8
2018-May-06 21:54N 38°49' W 090°07'2 4.4
2018-May-06 21:30N 38°48' W 090°07'4 5.0
2018-May-06 20:44N 38°44' W 090°09'3 2.4
2018-May-06 19:20N 38°41' W 090°11'1 4.5
2018-May-06 19:00N 38°40' W 090°11'4 3.6
2018-May-06 17:59N 38°36' W 090°11'1 0.2
2018-May-06 12:00N 38°35' W 090°12'1 1.2
2018-May-06 11:11N 38°36' W 090°12'0 1.6
2018-May-06 11:00N 38°36' W 090°11'2 4.9
2018-May-06 10:30N 38°39' W 090°11'3 6.2
2018-May-06 10:00N 38°42' W 090°11'1 1.1
2018-May-06 09:30N 38°42' W 090°11'1 2.6
2018-May-06 09:00N 38°43' W 090°10'0 0.9
2018-May-06 08:30N 38°44' W 090°10'0 0.0
2018-May-06 08:00N 38°44' W 090°10'0 0.2
2018-May-06 07:30N 38°44' W 090°10'0 0.4
2018-May-06 07:00N 38°44' W 090°09'2 3.2
2018-May-06 06:29N 38°46' W 090°08'2 4.4
2018-May-06 06:00N 38°48' W 090°07'3 6.9
2018-May-06 05:30N 38°51' W 090°07'2 4.6
2018-May-06 05:00N 38°52' W 090°09'0 0.9
2018-May-06 04:30N 38°52' W 090°10'2 4.8
2018-May-06 04:00N 38°54' W 090°12'1 2.9
2018-May-06 03:30N 38°55' W 090°13'0 0.0
2018-May-06 03:00N 38°55' W 090°13'0 0.0
2018-May-06 02:30N 38°55' W 090°13'0 0.0
2018-May-06 02:00N 38°55' W 090°13'0 0.0
2018-May-06 01:30N 38°55' W 090°13'0 0.0
2018-May-06 01:01N 38°55' W 090°13'0 0.2
2018-May-06 00:30N 38°55' W 090°14'2 4.5
2018-May-06 00:00N 38°55' W 090°16'3 5.9
2018-May-05 23:30N 38°56' W 090°20'3 5.9
2018-May-05 23:00N 38°58' W 090°23'3 5.9
2018-May-05 22:30N 38°58' W 090°27'2 4.9
2018-May-05 22:00N 38°58' W 090°30'2 4.0
2018-May-05 21:30N 38°58' W 090°33'3 5.1
2018-May-05 21:00N 39°00' W 090°34'2 4.7
2018-May-05 20:30N 39°03' W 090°35'2 3.7
2018-May-05 20:00N 39°04' W 090°35'2 4.4
2018-May-05 19:30N 39°06' W 090°36'2 4.8
2018-May-05 19:00N 39°09' W 090°37'2 4.6
2018-May-05 18:30N 39°11' W 090°36'  
2018-May-02 06:23N 39°12' W 090°36'2 3.9
2018-May-02 06:00N 39°11' W 090°36'1 1.5
2018-May-02 05:30N 39°10' W 090°37'0 0.0
2018-May-02 05:00N 39°10' W 090°37'1 2.3
2018-May-02 04:24N 39°09' W 090°37'2 4.3
2018-May-02 04:00N 39°07' W 090°36'2 4.4
2018-May-02 03:30N 39°05' W 090°36'2 3.8
2018-May-02 02:57N 39°03' W 090°35'1 3.1
2018-May-02 02:30N 39°02' W 090°34'0 0.1
2018-May-02 02:00N 39°02' W 090°34'0 0.0
2018-May-02 01:30N 39°02' W 090°34'0 0.0
2018-May-02 01:00N 39°02' W 090°34'0 0.0
2018-May-02 00:30N 39°02' W 090°34'2 3.3
2018-May-02 00:00N 39°00' W 090°35'2 4.5
2018-May-01 23:30N 38°58' W 090°33'2 4.1
2018-May-01 23:00N 38°57' W 090°31'2 4.5
2018-May-01 22:30N 38°58' W 090°28'2 3.9
2018-May-01 22:00N 38°58' W 090°26'2 3.8
2018-May-01 21:30N 38°58' W 090°23'2 3.8
2018-May-01 21:00N 38°57' W 090°21'2 3.7
2018-May-01 20:30N 38°56' W 090°19'2 3.7
2018-May-01 20:00N 38°55' W 090°17'2 3.8
2018-May-01 19:30N 38°55' W 090°14'2 3.6
2018-May-01 19:00N 38°54' W 090°13'2 3.9
2018-May-01 18:30N 38°53' W 090°11'2 3.1
2018-May-01 18:00N 38°52' W 090°09'1 1.6
2018-May-01 17:30N 38°52' W 090°08'0 0.1
2018-May-01 16:58N 38°52' W 090°08'0 0.0
2018-May-01 16:30N 38°52' W 090°08'0 0.0
2018-May-01 16:00N 38°52' W 090°08'0 0.0
2018-May-01 15:30N 38°52' W 090°08'0 1.0
2018-May-01 15:00N 38°51' W 090°08'2 3.5
2018-May-01 14:30N 38°50' W 090°07'2 4.1
2018-May-01 14:00N 38°48' W 090°07'2 4.9
2018-May-01 13:30N 38°46' W 090°08'2 4.6
2018-May-01 13:00N 38°44' W 090°10'2 3.5
2018-May-01 12:30N 38°42' W 090°11'0 0.5
2018-May-01 12:00N 38°42' W 090°11'0 0.1
2018-May-01 11:27N 38°42' W 090°11'0 0.1
2018-May-01 10:59N 38°42' W 090°11'0 0.1
2018-May-01 10:30N 38°42' W 090°11'0 0.6
2018-May-01 10:00N 38°42' W 090°11'2 3.4
2018-May-01 09:30N 38°40' W 090°11'2 3.4
2018-May-01 09:00N 38°38' W 090°11'2 3.5
2018-May-01 08:27N 38°36' W 090°11'1 0.0
2018-Apr-30 14:13N 38°36' W 090°12'0 0.2
2018-Apr-30 13:56N 38°36' W 090°12'1 3.3
2018-Apr-30 13:30N 38°37' W 090°11'4 7.4
2018-Apr-30 13:00N 38°41' W 090°11'1 2.4
2018-Apr-30 12:26N 38°42' W 090°11'0 0.6
2018-Apr-30 12:00N 38°42' W 090°11'1 1.8
2018-Apr-30 11:30N 38°43' W 090°10'1 1.1
2018-Apr-30 11:00N 38°44' W 090°10'0 0.1
2018-Apr-30 10:30N 38°44' W 090°10'0 0.2
2018-Apr-30 10:00N 38°44' W 090°10'0 0.6
2018-Apr-30 09:30N 38°44' W 090°10'1 1.3
2018-Apr-30 09:00N 38°45' W 090°09'2 3.8
2018-Apr-30 08:26N 38°46' W 090°08'2 5.2
2018-Apr-30 08:00N 38°49' W 090°07'3 6.0
2018-Apr-30 07:30N 38°51' W 090°08'1 2.4
2018-Apr-30 07:00N 38°52' W 090°09'1 2.5
2018-Apr-30 06:30N 38°53' W 090°10'3 5.8
2018-Apr-30 06:00N 38°55' W 090°13'0 0.4
2018-Apr-30 05:30N 38°55' W 090°13'0 0.0
2018-Apr-30 05:00N 38°55' W 090°13'0 0.0
2018-Apr-30 04:30N 38°55' W 090°13'0 0.0
2018-Apr-30 04:00N 38°55' W 090°13'1 2.2
2018-Apr-30 03:30N 38°55' W 090°15'3 5.2
2018-Apr-30 03:00N 38°55' W 090°18'3 5.1
2018-Apr-30 02:30N 38°57' W 090°21'3 5.5
2018-Apr-30 02:00N 38°58' W 090°24'3 6.0
2018-Apr-30 01:30N 38°57' W 090°28'3 5.7
2018-Apr-30 01:00N 38°55' W 090°30'3 5.9
2018-Apr-30 00:30N 38°53' W 090°32'3 5.8
2018-Apr-30 00:00N 38°52' W 090°36'3 5.6
2018-Apr-29 23:30N 38°54' W 090°38'3 5.6
2018-Apr-29 23:00N 38°57' W 090°40'3 5.8
2018-Apr-29 22:30N 38°59' W 090°41'1 1.7
2018-Apr-29 22:00N 39°00' W 090°41'0 0.2
2018-Apr-29 21:30N 39°00' W 090°41'0 0.0
2018-Apr-29 21:00N 39°00' W 090°41'0 0.3
2018-Apr-29 20:30N 39°00' W 090°42'1 2.8
2018-Apr-29 20:00N 39°02' W 090°42'6 5.4
2018-Apr-29 18:51N 39°08' W 090°42'  
Track history (hours):
 
Tides and Currents Weather Stations Pressure Air Temp Water Temp Dewpoint Dewpoint Depression Visibility Wind Speed Wind Dir Waves Ship Positions

Cooperative Mariner

Owner: American River Transportation Company, St Louis, MO. More information available from US FCC via Universal Licensing System and Coast Guard Vessel Documentation Center.

Last reported at 2018-May-07 15:27 UTC. Time now 2018-May-23 01:33 UTC.
Position N 39°10' W 090°43'.
Warning: this ship's position is 15 days out of date.

Length 51 m; draft 2.7 m.

Type: Towing. MMSI: 366984270.

Date/timePositionNaut miles runAvg speedWind from/ knotsBaromVisibWave heightAir tempDewpointWater temp
2018-May-07 15:27N 39°10' W 090°43'2 3.5
2018-May-07 15:00N 39°08' W 090°42'2 3.9
2018-May-07 14:30N 39°07' W 090°41'2 3.6
2018-May-07 13:57N 39°05' W 090°41'2 3.6
2018-May-07 13:30N 39°03' W 090°43'2 3.4
2018-May-07 13:00N 39°02' W 090°42'2 3.3
2018-May-07 12:30N 39°00' W 090°41'0 0.2
2018-May-07 12:00N 39°00' W 090°41'0 0.1
2018-May-07 11:29N 39°00' W 090°41'1 1.2
2018-May-07 11:00N 38°60' W 090°41'2 3.5
2018-May-07 10:30N 38°58' W 090°40'2 3.8
2018-May-07 10:00N 38°56' W 090°40'2 3.7
2018-May-07 09:30N 38°55' W 090°39'2 3.7
2018-May-07 09:00N 38°53' W 090°37'2 3.5
2018-May-07 08:30N 38°52' W 090°35'2 3.8
2018-May-07 08:00N 38°52' W 090°33'1 2.6
2018-May-07 07:30N 38°53' W 090°32'0 0.1
2018-May-07 07:00N 38°53' W 090°32'2 3.6
2018-May-07 06:30N 38°55' W 090°31'2 4.1
2018-May-07 06:00N 38°56' W 090°29'1 2.8
2018-May-07 05:30N 38°57' W 090°28'0 0.0
2018-May-07 05:00N 38°57' W 090°28'0 0.0
2018-May-07 04:30N 38°57' W 090°28'0 0.0
2018-May-07 04:00N 38°57' W 090°28'0 0.7
2018-May-07 03:30N 38°57' W 090°27'2 3.7
2018-May-07 03:00N 38°58' W 090°25'2 3.9
2018-May-07 02:30N 38°57' W 090°23'2 4.1
2018-May-07 02:00N 38°56' W 090°20'2 4.0
2018-May-07 01:30N 38°55' W 090°18'2 3.9
2018-May-07 01:00N 38°55' W 090°16'2 3.6
2018-May-07 00:29N 38°55' W 090°13'2 3.7
2018-May-07 00:00N 38°53' W 090°12'2 3.9
2018-May-06 23:30N 38°52' W 090°10'1 1.3
2018-May-06 23:00N 38°52' W 090°09'2 2.8
2018-May-06 22:17N 38°51' W 090°07'2 3.8
2018-May-06 21:54N 38°49' W 090°07'2 4.4
2018-May-06 21:30N 38°48' W 090°07'4 5.0
2018-May-06 20:44N 38°44' W 090°09'3 2.4
2018-May-06 19:20N 38°41' W 090°11'1 4.5
2018-May-06 19:00N 38°40' W 090°11'4 3.6
2018-May-06 17:59N 38°36' W 090°11'1 0.2
2018-May-06 12:00N 38°35' W 090°12'1 1.2
2018-May-06 11:11N 38°36' W 090°12'0 1.6
2018-May-06 11:00N 38°36' W 090°11'2 4.9
2018-May-06 10:30N 38°39' W 090°11'3 6.2
2018-May-06 10:00N 38°42' W 090°11'1 1.1
2018-May-06 09:30N 38°42' W 090°11'1 2.6
2018-May-06 09:00N 38°43' W 090°10'0 0.9
2018-May-06 08:30N 38°44' W 090°10'0 0.0
2018-May-06 08:00N 38°44' W 090°10'0 0.2
2018-May-06 07:30N 38°44' W 090°10'0 0.4
2018-May-06 07:00N 38°44' W 090°09'2 3.2
2018-May-06 06:29N 38°46' W 090°08'2 4.4
2018-May-06 06:00N 38°48' W 090°07'3 6.9
2018-May-06 05:30N 38°51' W 090°07'2 4.6
2018-May-06 05:00N 38°52' W 090°09'0 0.9
2018-May-06 04:30N 38°52' W 090°10'2 4.8
2018-May-06 04:00N 38°54' W 090°12'1 2.9
2018-May-06 03:30N 38°55' W 090°13'0 0.0
2018-May-06 03:00N 38°55' W 090°13'0 0.0
2018-May-06 02:30N 38°55' W 090°13'0 0.0
2018-May-06 02:00N 38°55' W 090°13'0 0.0
2018-May-06 01:30N 38°55' W 090°13'0 0.0
2018-May-06 01:01N 38°55' W 090°13'0 0.2
2018-May-06 00:30N 38°55' W 090°14'2 4.5
2018-May-06 00:00N 38°55' W 090°16'3 5.9
2018-May-05 23:30N 38°56' W 090°20'3 5.9
2018-May-05 23:00N 38°58' W 090°23'3 5.9
2018-May-05 22:30N 38°58' W 090°27'2 4.9
2018-May-05 22:00N 38°58' W 090°30'2 4.0
2018-May-05 21:30N 38°58' W 090°33'3 5.1
2018-May-05 21:00N 39°00' W 090°34'2 4.7
2018-May-05 20:30N 39°03' W 090°35'2 3.7
2018-May-05 20:00N 39°04' W 090°35'2 4.4
2018-May-05 19:30N 39°06' W 090°36'2 4.8
2018-May-05 19:00N 39°09' W 090°37'2 4.6
2018-May-05 18:30N 39°11' W 090°36'  
2018-May-02 06:23N 39°12' W 090°36'2 3.9
2018-May-02 06:00N 39°11' W 090°36'1 1.5
2018-May-02 05:30N 39°10' W 090°37'0 0.0
2018-May-02 05:00N 39°10' W 090°37'1 2.3
2018-May-02 04:24N 39°09' W 090°37'2 4.3
2018-May-02 04:00N 39°07' W 090°36'2 4.4
2018-May-02 03:30N 39°05' W 090°36'2 3.8
2018-May-02 02:57N 39°03' W 090°35'1 3.1
2018-May-02 02:30N 39°02' W 090°34'0 0.1
2018-May-02 02:00N 39°02' W 090°34'0 0.0
2018-May-02 01:30N 39°02' W 090°34'0 0.0
2018-May-02 01:00N 39°02' W 090°34'0 0.0
2018-May-02 00:30N 39°02' W 090°34'2 3.3
2018-May-02 00:00N 39°00' W 090°35'2 4.5
2018-May-01 23:30N 38°58' W 090°33'2 4.1
2018-May-01 23:00N 38°57' W 090°31'2 4.5
2018-May-01 22:30N 38°58' W 090°28'2 3.9
2018-May-01 22:00N 38°58' W 090°26'2 3.8
2018-May-01 21:30N 38°58' W 090°23'2 3.8
2018-May-01 21:00N 38°57' W 090°21'2 3.7
2018-May-01 20:30N 38°56' W 090°19'2 3.7
2018-May-01 20:00N 38°55' W 090°17'2 3.8
2018-May-01 19:30N 38°55' W 090°14'2 3.6
2018-May-01 19:00N 38°54' W 090°13'2 3.9
2018-May-01 18:30N 38°53' W 090°11'2 3.1
2018-May-01 18:00N 38°52' W 090°09'1 1.6
2018-May-01 17:30N 38°52' W 090°08'0 0.1
2018-May-01 16:58N 38°52' W 090°08'0 0.0
2018-May-01 16:30N 38°52' W 090°08'0 0.0
2018-May-01 16:00N 38°52' W 090°08'0 0.0
2018-May-01 15:30N 38°52' W 090°08'0 1.0
2018-May-01 15:00N 38°51' W 090°08'2 3.5
2018-May-01 14:30N 38°50' W 090°07'2 4.1
2018-May-01 14:00N 38°48' W 090°07'2 4.9
2018-May-01 13:30N 38°46' W 090°08'2 4.6
2018-May-01 13:00N 38°44' W 090°10'2 3.5
2018-May-01 12:30N 38°42' W 090°11'0 0.5
2018-May-01 12:00N 38°42' W 090°11'0 0.1
2018-May-01 11:27N 38°42' W 090°11'0 0.1
2018-May-01 10:59N 38°42' W 090°11'0 0.1
2018-May-01 10:30N 38°42' W 090°11'0 0.6
2018-May-01 10:00N 38°42' W 090°11'2 3.4
2018-May-01 09:30N 38°40' W 090°11'2 3.4
2018-May-01 09:00N 38°38' W 090°11'2 3.5
2018-May-01 08:27N 38°36' W 090°11'1 0.0
2018-Apr-30 14:13N 38°36' W 090°12'0 0.2
2018-Apr-30 13:56N 38°36' W 090°12'1 3.3
2018-Apr-30 13:30N 38°37' W 090°11'4 7.4
2018-Apr-30 13:00N 38°41' W 090°11'1 2.4
2018-Apr-30 12:26N 38°42' W 090°11'0 0.6
2018-Apr-30 12:00N 38°42' W 090°11'1 1.8
2018-Apr-30 11:30N 38°43' W 090°10'1 1.1
2018-Apr-30 11:00N 38°44' W 090°10'0 0.1
2018-Apr-30 10:30N 38°44' W 090°10'0 0.2
2018-Apr-30 10:00N 38°44' W 090°10'0 0.6
2018-Apr-30 09:30N 38°44' W 090°10'1 1.3
2018-Apr-30 09:00N 38°45' W 090°09'2 3.8
2018-Apr-30 08:26N 38°46' W 090°08'2 5.2
2018-Apr-30 08:00N 38°49' W 090°07'3 6.0
2018-Apr-30 07:30N 38°51' W 090°08'1 2.4
2018-Apr-30 07:00N 38°52' W 090°09'1 2.5
2018-Apr-30 06:30N 38°53' W 090°10'3 5.8
2018-Apr-30 06:00N 38°55' W 090°13'0 0.4
2018-Apr-30 05:30N 38°55' W 090°13'0 0.0
2018-Apr-30 05:00N 38°55' W 090°13'0 0.0
2018-Apr-30 04:30N 38°55' W 090°13'0 0.0
2018-Apr-30 04:00N 38°55' W 090°13'1 2.2
2018-Apr-30 03:30N 38°55' W 090°15'3 5.2
2018-Apr-30 03:00N 38°55' W 090°18'3 5.1
2018-Apr-30 02:30N 38°57' W 090°21'3 5.5
2018-Apr-30 02:00N 38°58' W 090°24'3 6.0
2018-Apr-30 01:30N 38°57' W 090°28'3 5.7
2018-Apr-30 01:00N 38°55' W 090°30'3 5.9
2018-Apr-30 00:30N 38°53' W 090°32'3 5.8
2018-Apr-30 00:00N 38°52' W 090°36'3 5.6
2018-Apr-29 23:30N 38°54' W 090°38'3 5.6
2018-Apr-29 23:00N 38°57' W 090°40'3 5.8
2018-Apr-29 22:30N 38°59' W 090°41'1 1.7
2018-Apr-29 22:00N 39°00' W 090°41'0 0.2
2018-Apr-29 21:30N 39°00' W 090°41'0 0.0
2018-Apr-29 21:00N 39°00' W 090°41'0 0.3
2018-Apr-29 20:30N 39°00' W 090°42'1 2.8
2018-Apr-29 20:00N 39°02' W 090°42'6 5.4
2018-Apr-29 18:51N 39°08' W 090°42'  

Dump ship's entire track history